Time;durP1;ratioP1;P1;durP2;ratioP2;P2;SDS_P1;SDS_P2;PMS_P1;PMS_P2;Temp;Humidity;BMP_temperature;BMP_pressure;BME280_temperature;BME280_humidity;BME280_pressure;Samples;Min_cycle;Max_cycle;Signal;HPM_P1;HPM_P2
2020/12/26 00:01:02;;;;;;;14.13;9.82;;;2.50;93.60;;;;;;2064076;28;20053;-68
2020/12/26 00:02:03;;;;;;;15.05;9.43;;;2.50;93.50;;;;;;2064068;28;20461;-68
2020/12/26 00:03:04;;;;;;;20.23;9.75;;;2.50;93.60;;;;;;2064049;28;20034;-68
2020/12/26 00:04:05;;;;;;;14.50;9.05;;;2.50;93.60;;;;;;2064090;28;20038;-68
2020/12/26 00:05:06;;;;;;;18.75;8.60;;;2.50;93.50;;;;;;2064151;28;20034;-68
2020/12/26 00:06:07;;;;;;;17.02;8.63;;;2.50;93.50;;;;;;2063902;28;20080;-68
2020/12/26 00:07:07;;;;;;;16.65;9.35;;;2.50;93.50;;;;;;2063883;28;20035;-68
2020/12/26 00:08:08;;;;;;;16.05;8.60;;;2.50;93.50;;;;;;2071473;28;20147;-68
2020/12/26 00:09:09;;;;;;;19.42;8.73;;;2.40;93.50;;;;;;2063295;28;20061;-68
2020/12/26 00:10:10;;;;;;;15.95;8.25;;;2.40;93.40;;;;;;2063335;28;20061;-68
2020/12/26 00:11:12;;;;;;;14.88;8.27;;;2.40;93.40;;;;;;2063360;28;20057;-68
2020/12/26 00:12:13;;;;;;;14.63;8.45;;;2.40;93.60;;;;;;2063378;28;20023;-68
2020/12/26 00:13:13;;;;;;;13.63;8.25;;;2.40;93.60;;;;;;2064104;28;20037;-68
2020/12/26 00:14:15;;;;;;;16.02;8.60;;;2.40;93.90;;;;;;2064021;28;20034;-67
2020/12/26 00:15:15;;;;;;;16.40;8.43;;;2.40;93.50;;;;;;2063216;28;20026;-68
2020/12/26 00:16:17;;;;;;;15.70;8.65;;;2.40;93.40;;;;;;2062894;28;20027;-69
2020/12/26 00:17:19;;;;;;;14.65;8.30;;;2.30;93.30;;;;;;2071224;28;20141;-69
2020/12/26 00:18:19;;;;;;;13.68;8.40;;;2.30;93.50;;;;;;2064016;28;20038;-68
2020/12/26 00:19:20;;;;;;;14.40;7.97;;;2.40;93.50;;;;;;2063330;28;20046;-68
2020/12/26 00:20:21;;;;;;;17.77;8.68;;;2.40;93.40;;;;;;2063549;28;20061;-68
2020/12/26 00:21:22;;;;;;;14.57;8.05;;;2.40;93.30;;;;;;2064309;28;20044;-68
2020/12/26 00:22:23;;;;;;;15.15;8.35;;;2.40;93.20;;;;;;2064146;28;20042;-68
2020/12/26 00:23:24;;;;;;;17.17;8.52;;;2.40;93.10;;;;;;2064241;28;20122;-68
2020/12/26 00:24:25;;;;;;;15.38;8.57;;;2.40;93.10;;;;;;2064214;28;20030;-68
2020/12/26 00:25:25;;;;;;;17.35;8.60;;;2.40;93.20;;;;;;2064198;28;20551;-70
2020/12/26 00:26:26;;;;;;;15.95;8.25;;;2.30;93.40;;;;;;2064076;28;20038;-68
2020/12/26 00:27:28;;;;;;;16.00;8.90;;;2.40;93.60;;;;;;2063739;28;20093;-68
2020/12/26 00:28:29;;;;;;;16.13;8.23;;;2.30;93.70;;;;;;2063983;28;20050;-69
2020/12/26 00:29:30;;;;;;;19.83;8.68;;;2.30;93.60;;;;;;2064197;28;20117;-69
2020/12/26 00:30:30;;;;;;;18.85;9.00;;;2.30;93.60;;;;;;2064051;28;20080;-69
2020/12/26 00:31:31;;;;;;;18.10;9.52;;;2.30;93.40;;;;;;2064081;28;20023;-69
2020/12/26 00:32:33;;;;;;;15.75;8.90;;;2.30;93.10;;;;;;2063421;28;20571;-69
2020/12/26 00:33:34;;;;;;;20.13;10.13;;;2.30;93.00;;;;;;2063481;28;20499;-69
2020/12/26 00:34:38;;;;;;;16.05;9.70;;;2.30;92.90;;;;;;2064008;28;20038;-69
2020/12/26 00:35:38;;;;;;;17.35;9.90;;;2.30;92.90;;;;;;2063435;28;20027;-69
2020/12/26 00:36:39;;;;;;;20.40;10.45;;;2.20;92.90;;;;;;2054921;28;20094;-69
2020/12/26 00:37:40;;;;;;;17.05;10.07;;;2.20;93.30;;;;;;2062926;28;20037;-69
2020/12/26 00:38:40;;;;;;;18.23;9.93;;;2.20;93.40;;;;;;2063185;28;20027;-69
2020/12/26 00:39:41;;;;;;;17.02;9.98;;;2.20;93.40;;;;;;2063157;28;20033;-69
2020/12/26 00:40:44;;;;;;;19.63;10.05;;;2.20;93.10;;;;;;2063216;28;20041;-68
2020/12/26 00:41:46;;;;;;;18.60;10.23;;;2.10;92.90;;;;;;2064033;28;20468;-68
2020/12/26 00:42:46;;;;;;;20.25;9.55;;;2.10;92.90;;;;;;2063254;28;20033;-68
2020/12/26 00:43:47;;;;;;;17.90;10.43;;;2.10;93.50;;;;;;2063292;28;20033;-69
2020/12/26 00:44:48;;;;;;;20.13;10.23;;;2.10;93.20;;;;;;2063859;28;20022;-68
2020/12/26 00:45:49;;;;;;;15.48;9.95;;;2.10;93.20;;;;;;2063912;28;20034;-69
2020/12/26 00:46:49;;;;;;;19.42;10.32;;;2.10;93.20;;;;;;2064776;28;20022;-68
2020/12/26 00:47:50;;;;;;;22.27;10.23;;;2.10;93.20;;;;;;2064906;28;20029;-68
2020/12/26 00:48:54;;;;;;;19.88;10.25;;;2.10;93.10;;;;;;2056998;28;20018;-68
2020/12/26 00:49:54;;;;;;;17.48;10.10;;;2.10;93.20;;;;;;2057184;28;20034;-68
2020/12/26 00:50:55;;;;;;;17.50;10.10;;;2.10;93.30;;;;;;2049196;29;20047;-68
2020/12/26 00:51:56;;;;;;;20.35;10.50;;;2.10;93.30;;;;;;2049206;28;20581;-68
2020/12/26 00:52:57;;;;;;;17.05;9.85;;;2.10;93.50;;;;;;2060638;28;20506;-69
2020/12/26 00:53:57;;;;;;;16.23;9.88;;;2.10;93.30;;;;;;2065149;28;20405;-69
2020/12/26 00:54:59;;;;;;;16.13;9.88;;;2.10;93.20;;;;;;2065042;28;20026;-69
2020/12/26 00:55:59;;;;;;;19.05;9.57;;;2.10;93.30;;;;;;2064739;28;20034;-68
2020/12/26 00:57:00;;;;;;;19.02;9.65;;;2.10;93.10;;;;;;2064634;28;20019;-68
2020/12/26 00:58:01;;;;;;;16.27;9.18;;;2.10;93.10;;;;;;2072924;28;20036;-68
2020/12/26 00:59:03;;;;;;;16.90;9.18;;;2.00;93.20;;;;;;2064831;28;20057;-68
2020/12/26 01:00:05;;;;;;;16.05;9.13;;;2.10;93.30;;;;;;2056809;28;20454;-69
2020/12/26 01:01:15;;;;;;;;;;;2.10;93.30;;;;;;2066598;28;20132;-68
2020/12/26 01:02:31;;;;;;;17.90;9.35;;;2.10;93.00;;;;;;2065164;28;20296;-68
2020/12/26 01:03:33;;;;;;;14.68;8.32;;;2.00;93.10;;;;;;2057155;28;20035;-69
2020/12/26 01:04:33;;;;;;;15.40;8.77;;;2.00;93.00;;;;;;2065101;28;20058;-69
2020/12/26 01:05:34;;;;;;;16.02;8.88;;;2.00;93.00;;;;;;2065725;28;20085;-69
2020/12/26 01:06:35;;;;;;;16.02;8.60;;;2.00;92.90;;;;;;2065404;28;20077;-69
2020/12/26 01:07:35;;;;;;;13.20;8.45;;;2.00;93.00;;;;;;2065216;28;20089;-69
2020/12/26 01:08:36;;;;;;;15.98;8.73;;;2.00;93.10;;;;;;2065552;28;20793;-69
2020/12/26 01:09:36;;;;;;;16.33;8.82;;;2.00;93.50;;;;;;2065505;28;20535;-69
2020/12/26 01:10:37;;;;;;;17.90;8.82;;;2.00;93.30;;;;;;2065272;28;20454;-69
2020/12/26 01:11:41;;;;;;;16.67;8.50;;;2.00;93.30;;;;;;2065363;28;20034;-69
2020/12/26 01:12:42;;;;;;;15.43;8.10;;;2.00;93.40;;;;;;2065448;28;20042;-68
2020/12/26 01:13:43;;;;;;;15.07;8.40;;;2.00;93.40;;;;;;2065404;28;20026;-68
2020/12/26 01:14:43;;;;;;;16.50;9.20;;;2.00;93.20;;;;;;2065366;28;20066;-69
2020/12/26 01:15:44;;;;;;;17.10;8.68;;;2.00;93.00;;;;;;2065445;28;20022;-69
2020/12/26 01:16:52;;;;;;;16.05;8.40;;;1.90;92.90;;;;;;2065081;28;20064;-69
2020/12/26 01:17:52;;;;;;;12.80;7.85;;;1.90;92.90;;;;;;2065340;28;20030;-69
2020/12/26 01:18:53;;;;;;;18.90;8.98;;;1.90;93.00;;;;;;2064952;28;20512;-69
2020/12/26 01:19:54;;;;;;;15.60;8.23;;;1.90;92.90;;;;;;2064805;28;20093;-69
2020/12/26 01:20:56;;;;;;;16.30;8.32;;;1.90;92.90;;;;;;2064598;28;20120;-69
2020/12/26 01:21:56;;;;;;;14.82;8.05;;;1.80;93.00;;;;;;2065321;28;20089;-69
2020/12/26 01:22:57;;;;;;;16.33;8.60;;;1.80;93.20;;;;;;2065218;28;20033;-69
2020/12/26 01:23:58;;;;;;;14.77;8.32;;;1.80;93.30;;;;;;2064633;28;20064;-68
2020/12/26 01:24:58;;;;;;;12.32;7.75;;;1.80;93.30;;;;;;2064664;28;20041;-68
2020/12/26 01:25:59;;;;;;;16.40;8.73;;;1.80;93.00;;;;;;2065028;28;20033;-68
2020/12/26 01:27:00;;;;;;;16.02;8.05;;;1.80;93.00;;;;;;2064206;28;20089;-68
2020/12/26 01:28:01;;;;;;;15.63;8.55;;;1.70;92.80;;;;;;2064496;28;20060;-68
2020/12/26 01:29:01;;;;;;;11.05;7.70;;;1.70;92.90;;;;;;2065217;28;20054;-68
2020/12/26 01:30:04;;;;;;;12.82;7.60;;;1.70;93.10;;;;;;2064427;28;20026;-68
2020/12/26 01:31:04;;;;;;;13.25;7.97;;;1.70;93.10;;;;;;2064756;28;20102;-68
2020/12/26 01:32:05;;;;;;;15.45;8.02;;;1.60;93.00;;;;;;2072730;28;20100;-68
2020/12/26 01:33:06;;;;;;;15.85;7.50;;;1.60;93.40;;;;;;2065337;28;20339;-68
2020/12/26 01:34:06;;;;;;;13.30;7.78;;;1.60;93.00;;;;;;2064580;28;20049;-69
2020/12/26 01:35:07;;;;;;;14.38;7.78;;;1.60;93.00;;;;;;2056572;28;20572;-68
2020/12/26 01:36:12;;;;;;;14.27;8.10;;;1.60;93.10;;;;;;2064378;28;20027;-68
2020/12/26 01:37:12;;;;;;;15.30;8.27;;;1.50;93.20;;;;;;2064901;28;20022;-68
2020/12/26 01:38:13;;;;;;;14.40;7.55;;;1.60;93.20;;;;;;2065229;28;20111;-68
2020/12/26 01:39:14;;;;;;;13.95;7.68;;;1.60;93.20;;;;;;2064473;28;20026;-68
2020/12/26 01:40:15;;;;;;;17.60;8.50;;;1.60;93.20;;;;;;2064513;28;20026;-68
2020/12/26 01:41:15;;;;;;;12.93;7.82;;;1.60;93.10;;;;;;2065182;28;20484;-68
2020/12/26 01:42:16;;;;;;;14.30;8.10;;;1.60;93.10;;;;;;2065056;28;20057;-68
2020/12/26 01:43:18;;;;;;;17.35;8.02;;;1.60;93.20;;;;;;2065053;28;20486;-68
2020/12/26 01:44:19;;;;;;;15.05;8.00;;;1.60;93.20;;;;;;2065101;28;20042;-68
2020/12/26 01:45:20;;;;;;;19.52;7.80;;;1.60;93.10;;;;;;2064985;28;20511;-69
2020/12/26 01:46:22;;;;;;;15.52;8.20;;;1.60;93.10;;;;;;2064345;28;20088;-68
2020/12/26 01:47:23;;;;;;;16.88;7.75;;;1.60;93.10;;;;;;2064174;28;20038;-68
2020/12/26 01:48:25;;;;;;;13.70;8.05;;;1.60;93.10;;;;;;2065030;28;20464;-68
2020/12/26 01:49:25;;;;;;;14.45;7.45;;;1.60;93.20;;;;;;2064407;28;20576;-68
2020/12/26 01:50:27;;;;;;;13.52;7.70;;;1.60;93.10;;;;;;2064375;28;20033;-68
2020/12/26 01:51:30;;;;;;;17.90;7.78;;;1.60;93.10;;;;;;2065126;28;20034;-68
2020/12/26 01:52:31;;;;;;;15.65;7.57;;;1.60;93.10;;;;;;2065275;28;20030;-69
2020/12/26 01:53:32;;;;;;;13.38;8.10;;;1.60;93.00;;;;;;2065240;28;20030;-67
2020/12/26 01:54:33;;;;;;;13.85;7.25;;;1.60;93.00;;;;;;2065162;28;20038;-67
2020/12/26 01:55:34;;;;;;;12.63;7.95;;;1.60;93.10;;;;;;2065265;28;20101;-68
2020/12/26 01:56:37;;;;;;;13.63;7.30;;;1.70;93.10;;;;;;2065169;28;20521;-67
2020/12/26 01:57:47;;;;;;;15.73;8.15;;;1.70;93.00;;;;;;2064921;28;20033;-67
2020/12/26 01:58:48;;;;;;;;;;;1.70;92.80;;;;;;2065627;28;20533;-67
2020/12/26 01:59:49;;;;;;;13.10;7.60;;;1.70;92.70;;;;;;2065099;28;19929;-67
2020/12/26 02:00:49;;;;;;;15.30;7.60;;;1.70;92.90;;;;;;2064980;28;20540;-67
2020/12/26 02:01:51;;;;;;;13.25;7.78;;;1.70;92.80;;;;;;2065015;28;20496;-67
2020/12/26 02:02:51;;;;;;;13.73;7.35;;;1.80;92.80;;;;;;2065003;28;20033;-67
2020/12/26 02:03:52;;;;;;;13.32;7.93;;;1.80;92.90;;;;;;2064876;28;20030;-67
2020/12/26 02:04:53;;;;;;;13.63;7.60;;;1.80;92.90;;;;;;2064824;28;20042;-67
2020/12/26 02:05:56;;;;;;;13.75;7.43;;;1.80;92.80;;;;;;2064286;28;20068;-67
2020/12/26 02:06:59;;;;;;;14.98;8.05;;;1.80;92.70;;;;;;2063901;28;20022;-68
2020/12/26 02:08:00;;;;;;;15.02;7.68;;;1.80;92.60;;;;;;2064361;28;20026;-67
2020/12/26 02:09:01;;;;;;;13.43;7.35;;;1.80;92.60;;;;;;2064411;28;20026;-67
2020/12/26 02:10:03;;;;;;;11.40;7.32;;;1.80;92.60;;;;;;2064247;28;20046;-67
2020/12/26 02:11:04;;;;;;;11.80;7.05;;;1.90;92.80;;;;;;2064530;28;20018;-68
2020/12/26 02:12:05;;;;;;;14.10;6.72;;;1.80;92.30;;;;;;2064973;28;20038;-67
2020/12/26 02:13:06;;;;;;;13.15;6.85;;;1.80;92.20;;;;;;2065105;28;20493;-67
2020/12/26 02:14:07;;;;;;;15.95;6.70;;;1.80;92.30;;;;;;2065134;28;20476;-67
2020/12/26 02:15:11;;;;;;;11.30;6.63;;;1.80;92.20;;;;;;2064466;28;20137;-67
2020/12/26 02:16:13;;;;;;;13.90;6.70;;;1.80;92.20;;;;;;2064187;28;20034;-67
2020/12/26 02:17:14;;;;;;;11.95;6.38;;;1.80;92.10;;;;;;2064695;28;20037;-67
2020/12/26 02:18:15;;;;;;;9.68;6.13;;;1.80;92.10;;;;;;2064243;28;20057;-68
2020/12/26 02:19:17;;;;;;;11.23;6.47;;;1.90;92.10;;;;;;2064179;28;20058;-67
2020/12/26 02:20:18;;;;;;;11.80;5.93;;;1.90;92.00;;;;;;2064165;28;20045;-67
2020/12/26 02:21:22;;;;;;;11.50;6.55;;;1.90;91.90;;;;;;2064310;28;20482;-67
2020/12/26 02:22:23;;;;;;;11.30;5.63;;;1.90;91.80;;;;;;2064006;28;20050;-67
2020/12/26 02:23:25;;;;;;;9.70;5.32;;;1.90;91.30;;;;;;2056237;28;20031;-67
2020/12/26 02:24:26;;;;;;;11.45;5.18;;;1.90;91.30;;;;;;2064451;28;20034;-67
2020/12/26 02:25:26;;;;;;;10.25;5.65;;;1.90;91.40;;;;;;2072351;28;20061;-67
2020/12/26 02:26:29;;;;;;;11.77;5.63;;;1.90;91.50;;;;;;2064643;28;20030;-67
2020/12/26 02:27:29;;;;;;;10.60;5.10;;;1.90;90.90;;;;;;2064053;28;20069;-67
2020/12/26 02:28:30;;;;;;;9.93;5.30;;;1.90;90.80;;;;;;2064202;28;20497;-67
2020/12/26 02:29:30;;;;;;;8.77;4.97;;;1.90;90.70;;;;;;2072384;28;20026;-67
2020/12/26 02:30:31;;;;;;;8.23;4.70;;;1.90;90.70;;;;;;2064700;28;20069;-67
2020/12/26 02:31:33;;;;;;;9.57;4.53;;;1.90;90.50;;;;;;2064774;28;20038;-67
2020/12/26 02:32:34;;;;;;;9.50;4.65;;;1.90;90.40;;;;;;2064848;28;20605;-67
2020/12/26 02:33:35;;;;;;;7.57;4.68;;;1.90;90.30;;;;;;2064122;28;20113;-67
2020/12/26 02:34:35;;;;;;;7.35;4.35;;;1.90;90.30;;;;;;2064332;28;20030;-67
2020/12/26 02:35:36;;;;;;;7.07;4.30;;;1.90;90.20;;;;;;2064827;28;20374;-67
2020/12/26 02:36:37;;;;;;;7.75;4.30;;;2.00;90.00;;;;;;2064592;28;20527;-67
2020/12/26 02:37:38;;;;;;;6.55;3.70;;;2.00;90.10;;;;;;2064686;28;20042;-67
2020/12/26 02:38:39;;;;;;;7.45;4.03;;;2.00;89.40;;;;;;2064864;28;20038;-67
2020/12/26 02:39:40;;;;;;;6.93;3.65;;;2.00;88.80;;;;;;2064821;28;20023;-67
2020/12/26 02:40:41;;;;;;;7.45;3.60;;;2.00;89.20;;;;;;2064387;28;20445;-67
2020/12/26 02:41:41;;;;;;;7.15;3.58;;;2.00;89.40;;;;;;2064253;28;20081;-67
2020/12/26 02:42:43;;;;;;;7.53;4.03;;;2.00;89.70;;;;;;2064849;28;20109;-67
2020/12/26 02:43:44;;;;;;;7.50;3.92;;;2.00;90.00;;;;;;2064924;28;20035;-67
2020/12/26 02:44:45;;;;;;;7.88;3.88;;;2.10;90.00;;;;;;2064674;28;20084;-67
2020/12/26 02:45:46;;;;;;;6.15;3.65;;;2.10;90.00;;;;;;2064860;28;20110;-68
2020/12/26 02:46:49;;;;;;;6.07;3.90;;;2.10;90.00;;;;;;2063867;28;20481;-67
2020/12/26 02:47:50;;;;;;;8.65;4.18;;;2.10;89.90;;;;;;2064231;28;20018;-67
2020/12/26 02:48:51;;;;;;;8.68;3.65;;;2.10;89.80;;;;;;2064730;28;20080;-67
2020/12/26 02:49:51;;;;;;;7.18;3.90;;;2.10;90.00;;;;;;2063997;28;20109;-67
2020/12/26 02:50:53;;;;;;;7.93;4.10;;;2.10;90.00;;;;;;2063979;28;20058;-67
2020/12/26 02:51:53;;;;;;;9.32;4.60;;;2.10;90.00;;;;;;2072028;28;20473;-67
2020/12/26 02:52:54;;;;;;;8.82;4.00;;;2.10;90.00;;;;;;2063950;28;20027;-67
2020/12/26 02:53:55;;;;;;;6.10;3.83;;;2.10;90.20;;;;;;2064129;28;20026;-67
2020/12/26 02:54:55;;;;;;;8.48;4.00;;;2.10;90.30;;;;;;2064692;28;20101;-67
2020/12/26 02:55:56;;;;;;;7.00;4.25;;;2.10;90.30;;;;;;2064669;28;20780;-67
2020/12/26 02:56:57;;;;;;;10.30;4.32;;;2.10;90.40;;;;;;2063480;28;20022;-67
2020/12/26 02:57:58;;;;;;;7.50;4.28;;;2.10;90.10;;;;;;2064033;28;20136;-67
2020/12/26 02:58:58;;;;;;;8.68;3.88;;;2.10;90.20;;;;;;2064119;28;20116;-67
2020/12/26 02:59:59;;;;;;;11.25;4.25;;;2.10;90.30;;;;;;2064581;28;20088;-67
2020/12/26 03:01:00;;;;;;;10.35;4.53;;;2.10;90.40;;;;;;2064530;28;20026;-68
2020/12/26 03:02:00;;;;;;;7.43;4.10;;;2.10;90.30;;;;;;2064033;28;20551;-67
2020/12/26 03:03:01;;;;;;;7.38;4.35;;;2.10;90.50;;;;;;2064018;28;20393;-67
2020/12/26 03:04:02;;;;;;;7.63;4.65;;;2.10;90.70;;;;;;2064551;28;20045;-67
2020/12/26 03:05:02;;;;;;;8.98;4.47;;;2.10;90.80;;;;;;2064568;28;20057;-67
2020/12/26 03:06:03;;;;;;;6.57;4.43;;;2.10;90.80;;;;;;2063661;28;20132;-67
2020/12/26 03:07:03;;;;;;;8.93;4.82;;;2.10;90.70;;;;;;2055625;28;20051;-67
2020/12/26 03:08:04;;;;;;;9.10;4.45;;;2.10;90.70;;;;;;2063777;28;20042;-67
2020/12/26 03:09:05;;;;;;;8.02;4.43;;;2.10;90.70;;;;;;2063585;28;20401;-67
2020/12/26 03:10:05;;;;;;;8.88;4.40;;;2.10;90.60;;;;;;2064609;28;20030;-68
2020/12/26 03:11:06;;;;;;;10.23;4.70;;;2.00;90.30;;;;;;2064642;28;20030;-67
2020/12/26 03:12:07;;;;;;;10.30;4.40;;;2.00;90.20;;;;;;2055992;28;20023;-67
2020/12/26 03:13:07;;;;;;;8.23;4.57;;;2.10;90.30;;;;;;2055973;28;20500;-67
2020/12/26 03:14:08;;;;;;;10.00;4.70;;;2.00;90.50;;;;;;2064502;28;20085;-67
2020/12/26 03:15:09;;;;;;;8.40;4.80;;;2.10;90.70;;;;;;2064472;28;20026;-68
2020/12/26 03:16:10;;;;;;;9.50;4.80;;;2.10;90.70;;;;;;2064232;28;20042;-67
2020/12/26 03:17:10;;;;;;;9.55;4.70;;;2.10;90.60;;;;;;2064252;28;20040;-67
2020/12/26 03:18:11;;;;;;;13.90;5.20;;;2.10;90.70;;;;;;2064509;28;20038;-67
2020/12/26 03:19:11;;;;;;;10.05;4.93;;;2.10;90.50;;;;;;2064259;28;20034;-68
2020/12/26 03:20:12;;;;;;;8.93;4.82;;;2.10;90.20;;;;;;2064514;28;20040;-67
2020/12/26 03:21:14;;;;;;;8.07;4.60;;;2.00;90.20;;;;;;2063802;28;20406;-67
2020/12/26 03:22:14;;;;;;;11.77;5.00;;;2.00;90.30;;;;;;2063829;28;20386;-67
2020/12/26 03:23:15;;;;;;;9.63;4.57;;;2.00;90.20;;;;;;2055804;28;20053;-67
2020/12/26 03:24:16;;;;;;;10.18;4.90;;;2.10;90.30;;;;;;2047753;28;20059;-68
2020/12/26 03:25:16;;;;;;;9.43;5.10;;;2.10;90.20;;;;;;2055674;28;20636;-67
2020/12/26 03:26:17;;;;;;;9.02;4.90;;;2.00;90.10;;;;;;2055642;28;20775;-68
2020/12/26 03:27:18;;;;;;;10.65;4.88;;;2.00;90.20;;;;;;2063559;28;20405;-69
2020/12/26 03:28:19;;;;;;;8.35;5.22;;;2.00;90.30;;;;;;2064395;28;20440;-68
2020/12/26 03:29:19;;;;;;;13.18;5.07;;;2.00;90.30;;;;;;2064443;28;20048;-68
2020/12/26 03:30:20;;;;;;;14.00;5.57;;;2.00;90.30;;;;;;2063598;28;20038;-68
2020/12/26 03:31:20;;;;;;;13.23;5.40;;;2.00;90.20;;;;;;2063788;28;20085;-68
2020/12/26 03:32:22;;;;;;;10.27;4.85;;;2.00;90.00;;;;;;2063785;28;20034;-68
2020/12/26 03:33:22;;;;;;;10.75;5.20;;;2.00;90.00;;;;;;2063827;28;20042;-68
2020/12/26 03:34:23;;;;;;;8.30;5.25;;;2.00;89.60;;;;;;2064313;28;20060;-67
2020/12/26 03:35:23;;;;;;;14.57;5.25;;;2.00;89.90;;;;;;2063810;28;20027;-69
2020/12/26 03:36:24;;;;;;;10.43;5.07;;;2.00;90.00;;;;;;2063555;28;20026;-67
2020/12/26 03:37:25;;;;;;;7.38;4.97;;;2.00;90.00;;;;;;2064071;28;20554;-68
2020/12/26 03:38:26;;;;;;;9.93;5.18;;;2.00;90.00;;;;;;2064308;28;20034;-68
2020/12/26 03:39:26;;;;;;;11.15;5.80;;;2.00;90.00;;;;;;2064346;28;20137;-68
2020/12/26 03:40:27;;;;;;;9.80;5.50;;;2.00;90.00;;;;;;2064251;28;20034;-69
2020/12/26 03:41:28;;;;;;;13.38;6.03;;;2.00;90.10;;;;;;2064360;28;20045;-68
2020/12/26 03:42:28;;;;;;;13.40;5.82;;;2.00;90.20;;;;;;2064240;28;20038;-68
2020/12/26 03:43:29;;;;;;;14.02;6.10;;;2.00;90.10;;;;;;2064203;28;20125;-68
2020/12/26 03:44:30;;;;;;;10.65;5.60;;;2.00;90.20;;;;;;2064317;28;20116;-67
2020/12/26 03:45:31;;;;;;;11.75;5.70;;;2.00;90.20;;;;;;2064318;28;20034;-68
2020/12/26 03:46:31;;;;;;;13.43;6.40;;;2.00;90.10;;;;;;2064030;28;20026;-68
2020/12/26 03:47:32;;;;;;;13.32;5.70;;;2.00;89.70;;;;;;2063929;28;20030;-67
2020/12/26 03:48:32;;;;;;;11.48;6.15;;;1.90;89.60;;;;;;2064115;28;20030;-67
2020/12/26 03:49:33;;;;;;;12.18;6.32;;;1.90;89.70;;;;;;2063615;28;20038;-68
2020/12/26 03:50:34;;;;;;;12.25;6.35;;;1.90;89.70;;;;;;2063560;28;20073;-67
2020/12/26 03:51:35;;;;;;;12.68;6.15;;;1.90;89.80;;;;;;2064309;28;20023;-67
2020/12/26 03:52:35;;;;;;;14.68;6.57;;;1.90;89.50;;;;;;2064311;28;20026;-68
2020/12/26 03:53:36;;;;;;;12.02;6.22;;;1.90;89.40;;;;;;2064219;28;20026;-68
2020/12/26 03:54:36;;;;;;;10.85;6.38;;;1.90;89.70;;;;;;2064341;28;20088;-67
2020/12/26 03:55:37;;;;;;;10.90;5.95;;;1.90;90.00;;;;;;2063536;28;20040;-68
2020/12/26 03:56:38;;;;;;;10.60;6.18;;;1.90;90.00;;;;;;2063419;28;20065;-68
2020/12/26 03:57:38;;;;;;;14.43;6.30;;;1.90;90.10;;;;;;2063974;28;20102;-68
2020/12/26 03:58:39;;;;;;;10.98;6.00;;;1.90;90.00;;;;;;2063598;28;20519;-68
2020/12/26 03:59:40;;;;;;;11.65;6.30;;;1.90;90.00;;;;;;2063612;28;20035;-68
2020/12/26 04:00:41;;;;;;;9.20;5.57;;;1.90;90.20;;;;;;2064137;28;20485;-68
2020/12/26 04:01:42;;;;;;;12.95;5.80;;;1.90;90.10;;;;;;2064096;28;20030;-68
2020/12/26 04:02:42;;;;;;;10.95;5.50;;;1.90;89.40;;;;;;2064147;28;20062;-68
2020/12/26 04:03:43;;;;;;;8.75;5.60;;;1.90;88.90;;;;;;2063552;28;20030;-68
2020/12/26 04:04:44;;;;;;;10.52;5.65;;;1.90;88.80;;;;;;2063629;28;20031;-68
2020/12/26 04:05:44;;;;;;;11.25;5.72;;;1.90;88.80;;;;;;2063532;28;20106;-67
2020/12/26 04:06:45;;;;;;;8.68;5.45;;;1.90;89.10;;;;;;2055076;28;20049;-67
2020/12/26 04:07:46;;;;;;;12.63;5.97;;;1.90;89.20;;;;;;2063799;28;20029;-68
2020/12/26 04:08:46;;;;;;;12.50;5.68;;;1.90;88.90;;;;;;2064252;28;20481;-68
2020/12/26 04:09:47;;;;;;;11.05;5.03;;;1.90;88.40;;;;;;2064362;28;20073;-68
2020/12/26 04:10:48;;;;;;;10.43;5.45;;;1.90;88.30;;;;;;2064216;28;20034;-68
2020/12/26 04:11:48;;;;;;;11.45;5.50;;;1.90;88.10;;;;;;2064276;28;20046;-68
2020/12/26 04:12:49;;;;;;;10.85;5.30;;;1.90;88.10;;;;;;2064254;28;20049;-68
2020/12/26 04:13:50;;;;;;;9.60;5.10;;;2.00;88.00;;;;;;2064161;28;20029;-68
2020/12/26 04:14:51;;;;;;;8.90;5.05;;;2.00;87.80;;;;;;2064208;28;20042;-67
2020/12/26 04:15:52;;;;;;;7.85;4.68;;;2.00;87.90;;;;;;2063524;28;20027;-68
2020/12/26 04:16:59;;;;;;;9.30;4.68;;;2.00;87.90;;;;;;2063112;28;20023;-68
2020/12/26 04:18:00;;;;;;;9.80;4.82;;;2.00;87.50;;;;;;2064415;28;20173;-67
2020/12/26 04:19:00;;;;;;;9.15;4.80;;;2.00;87.20;;;;;;2064015;28;20037;-68
2020/12/26 04:20:01;;;;;;;9.55;5.00;;;2.00;87.10;;;;;;2063689;28;20033;-68
2020/12/26 04:21:02;;;;;;;10.32;4.75;;;2.00;87.20;;;;;;2064273;28;20485;-68
2020/12/26 04:22:03;;;;;;;14.18;4.68;;;2.00;87.00;;;;;;2065925;28;20121;-68
2020/12/26 04:23:04;;;;;;;8.95;4.50;;;1.90;86.30;;;;;;2065829;28;20081;-68
2020/12/26 04:24:04;;;;;;;9.10;4.72;;;1.90;86.40;;;;;;2065801;28;20100;-67
2020/12/26 04:25:05;;;;;;;8.32;4.68;;;1.90;86.60;;;;;;2065884;28;20482;-67
2020/12/26 04:26:09;;;;;;;9.13;4.80;;;1.90;86.60;;;;;;2065606;28;20146;-67
2020/12/26 04:27:10;;;;;;;10.73;4.53;;;1.90;86.80;;;;;;2056901;28;20030;-68
2020/12/26 04:28:11;;;;;;;7.95;4.88;;;1.90;86.80;;;;;;2057152;28;20033;-67
2020/12/26 04:29:11;;;;;;;8.38;4.53;;;1.80;86.90;;;;;;2065805;28;20030;-67
2020/12/26 04:30:12;;;;;;;8.32;4.50;;;1.70;87.10;;;;;;2065658;28;20030;-68
2020/12/26 04:31:13;;;;;;;8.48;4.85;;;1.70;87.40;;;;;;2065034;28;20612;-68
2020/12/26 04:32:14;;;;;;;9.98;4.63;;;1.70;87.80;;;;;;2065094;28;20030;-67
2020/12/26 04:33:14;;;;;;;9.68;4.57;;;1.60;88.00;;;;;;2065751;28;20065;-67
2020/12/26 04:34:15;;;;;;;7.10;4.38;;;1.50;88.30;;;;;;2065182;28;20054;-67
2020/12/26 04:35:19;;;;;;;9.65;4.28;;;1.50;88.30;;;;;;2065161;28;20058;-68
2020/12/26 04:36:20;;;;;;;8.10;4.10;;;1.50;88.30;;;;;;2064837;28;20117;-69
2020/12/26 04:37:20;;;;;;;7.03;3.92;;;1.50;88.40;;;;;;2064776;28;20436;-68
2020/12/26 04:38:21;;;;;;;7.32;4.10;;;1.50;88.50;;;;;;2065703;28;20076;-68
2020/12/26 04:39:22;;;;;;;7.82;4.18;;;1.50;88.70;;;;;;2065111;28;20094;-69
2020/12/26 04:40:22;;;;;;;8.25;4.15;;;1.50;88.70;;;;;;2065438;28;20120;-68
2020/12/26 04:41:24;;;;;;;9.60;4.25;;;1.60;88.80;;;;;;2065820;28;20096;-68
2020/12/26 04:42:25;;;;;;;8.60;4.10;;;1.60;88.90;;;;;;2065184;28;20034;-68
2020/12/26 04:43:27;;;;;;;8.95;4.05;;;1.60;88.80;;;;;;2065124;28;20125;-68
2020/12/26 04:44:28;;;;;;;7.05;3.65;;;1.60;88.50;;;;;;2065804;28;20019;-68
2020/12/26 04:45:30;;;;;;;7.53;3.65;;;1.70;88.60;;;;;;2065755;28;20041;-68
2020/12/26 04:46:35;;;;;;;6.65;3.58;;;1.70;88.40;;;;;;2065440;28;20061;-68
2020/12/26 04:47:53;;;;;;;7.05;3.80;;;1.80;88.30;;;;;;2065461;28;20022;-68
2020/12/26 04:49:07;;;;;;;7.43;4.00;;;1.80;88.00;;;;;;2065551;28;20038;-68
2020/12/26 04:50:08;;;;;;;5.93;3.60;;;1.90;87.50;;;;;;2065598;28;20135;-69
2020/12/26 04:51:15;;;;;;;6.55;3.65;;;1.90;87.70;;;;;;2065678;28;20069;-69
2020/12/26 04:52:17;;;;;;;7.60;3.83;;;1.90;86.70;;;;;;2065096;28;20065;-69
2020/12/26 04:53:19;;;;;;;7.72;3.90;;;1.90;86.70;;;;;;2065156;28;20061;-69
2020/12/26 04:54:25;;;;;;;6.57;3.97;;;1.90;86.80;;;;;;2065231;28;20026;-69
2020/12/26 04:55:36;;;;;;;7.15;3.97;;;1.90;86.80;;;;;;2065395;28;20066;-69
2020/12/26 04:56:42;;;;;;;7.90;3.95;;;2.00;86.60;;;;;;2065774;28;20026;-69
2020/12/26 04:57:45;;;;;;;7.88;4.00;;;2.00;86.50;;;;;;2065780;28;20481;-69
2020/12/26 04:58:49;;;;;;;6.53;3.63;;;2.00;86.40;;;;;;2065923;28;20034;-69
2020/12/26 04:59:50;;;;;;;8.10;3.80;;;2.00;86.40;;;;;;2065856;28;20018;-69
2020/12/26 05:00:50;;;;;;;6.47;3.60;;;2.00;86.60;;;;;;2065767;28;20545;-69
2020/12/26 05:01:52;;;;;;;8.80;3.75;;;2.00;86.80;;;;;;2065031;28;20551;-69
2020/12/26 05:02:55;;;;;;;7.32;3.65;;;2.00;86.80;;;;;;2065150;28;20467;-69
2020/12/26 05:03:59;;;;;;;7.55;3.60;;;2.00;86.90;;;;;;2065892;28;20037;-69
2020/12/26 05:05:01;;;;;;;5.43;3.88;;;2.00;86.90;;;;;;2065919;28;20105;-69
2020/12/26 05:06:06;;;;;;;6.97;3.88;;;2.00;86.90;;;;;;2065727;28;20105;-69
2020/12/26 05:07:07;;;;;;;8.00;3.72;;;2.00;87.00;;;;;;2065448;28;20366;-69
2020/12/26 05:08:09;;;;;;;6.28;3.55;;;2.00;87.00;;;;;;2065652;28;20065;-69
2020/12/26 05:09:10;;;;;;;5.97;3.17;;;2.00;87.00;;;;;;2065847;28;20026;-69
2020/12/26 05:10:11;;;;;;;6.72;3.38;;;2.00;86.90;;;;;;2065644;28;20489;-69
2020/12/26 05:11:11;;;;;;;7.57;2.92;;;2.00;86.60;;;;;;2065674;28;20029;-70
2020/12/26 05:12:12;;;;;;;5.63;3.10;;;2.00;86.40;;;;;;2065747;28;20496;-69
2020/12/26 05:13:13;;;;;;;7.03;2.80;;;1.90;86.20;;;;;;2065625;28;20031;-70
2020/12/26 05:14:16;;;;;;;9.02;3.10;;;1.90;85.80;;;;;;2064920;28;20482;-69
2020/12/26 05:15:17;;;;;;;7.72;3.25;;;1.90;85.60;;;;;;2057401;28;20041;-67
2020/12/26 05:16:18;;;;;;;5.13;2.83;;;1.90;85.70;;;;;;2056781;28;20074;-70
2020/12/26 05:17:20;;;;;;;5.82;2.85;;;1.80;85.70;;;;;;2065004;28;20513;-67
2020/12/26 05:18:22;;;;;;;7.95;3.22;;;1.90;86.20;;;;;;2065665;28;20077;-67
2020/12/26 05:19:23;;;;;;;6.53;3.22;;;1.90;86.00;;;;;;2064794;28;20045;-67
2020/12/26 05:20:27;;;;;;;9.38;3.20;;;1.90;85.70;;;;;;2057093;28;20389;-68
2020/12/26 05:21:28;;;;;;;6.28;2.90;;;1.80;85.90;;;;;;2065221;28;20260;-68